sensor_id;sensor_type;location;lat;lon;timestamp;P1;durP1;ratioP1;P2;durP2;ratioP2
74371;SDS011;62885;51.374;6.170;2024-03-22T00:02:18;23.40;;;11.48;;
74371;SDS011;62885;51.374;6.170;2024-03-22T00:04:44;24.08;;;10.93;;
74371;SDS011;62885;51.374;6.170;2024-03-22T00:07:09;22.52;;;11.27;;
74371;SDS011;62885;51.374;6.170;2024-03-22T00:09:34;21.40;;;10.23;;
74371;SDS011;62885;51.374;6.170;2024-03-22T00:12:00;25.58;;;11.18;;
74371;SDS011;62885;51.374;6.170;2024-03-22T00:14:25;23.67;;;11.93;;
74371;SDS011;62885;51.374;6.170;2024-03-22T00:16:51;23.52;;;10.75;;
74371;SDS011;62885;51.374;6.170;2024-03-22T00:19:16;24.08;;;12.52;;
74371;SDS011;62885;51.374;6.170;2024-03-22T00:21:41;24.05;;;11.18;;
74371;SDS011;62885;51.374;6.170;2024-03-22T00:24:07;22.90;;;11.50;;
74371;SDS011;62885;51.374;6.170;2024-03-22T00:26:32;24.17;;;11.45;;
74371;SDS011;62885;51.374;6.170;2024-03-22T00:28:58;25.33;;;10.80;;
74371;SDS011;62885;51.374;6.170;2024-03-22T00:31:23;23.60;;;10.88;;
74371;SDS011;62885;51.374;6.170;2024-03-22T00:33:49;21.38;;;10.88;;
74371;SDS011;62885;51.374;6.170;2024-03-22T00:36:17;22.73;;;10.60;;
74371;SDS011;62885;51.374;6.170;2024-03-22T00:38:42;22.02;;;11.68;;
74371;SDS011;62885;51.374;6.170;2024-03-22T00:41:07;26.65;;;11.82;;
74371;SDS011;62885;51.374;6.170;2024-03-22T00:43:33;23.27;;;11.07;;
74371;SDS011;62885;51.374;6.170;2024-03-22T00:45:58;24.88;;;12.18;;
74371;SDS011;62885;51.374;6.170;2024-03-22T00:48:24;25.65;;;11.60;;
74371;SDS011;62885;51.374;6.170;2024-03-22T00:50:49;24.85;;;12.38;;
74371;SDS011;62885;51.374;6.170;2024-03-22T00:53:14;26.63;;;12.48;;
74371;SDS011;62885;51.374;6.170;2024-03-22T00:55:40;23.42;;;12.13;;
74371;SDS011;62885;51.374;6.170;2024-03-22T00:58:05;27.67;;;12.68;;
74371;SDS011;62885;51.374;6.170;2024-03-22T01:00:31;27.90;;;13.43;;
74371;SDS011;62885;51.374;6.170;2024-03-22T01:02:56;25.83;;;13.00;;
74371;SDS011;62885;51.374;6.170;2024-03-22T01:05:21;23.30;;;11.55;;
74371;SDS011;62885;51.374;6.170;2024-03-22T01:07:47;23.60;;;11.55;;
74371;SDS011;62885;51.374;6.170;2024-03-22T01:10:12;25.70;;;11.85;;
74371;SDS011;62885;51.374;6.170;2024-03-22T01:12:38;25.95;;;12.50;;
74371;SDS011;62885;51.374;6.170;2024-03-22T01:15:04;24.35;;;12.57;;
74371;SDS011;62885;51.374;6.170;2024-03-22T01:17:31;30.70;;;13.10;;
74371;SDS011;62885;51.374;6.170;2024-03-22T01:19:56;27.83;;;11.73;;
74371;SDS011;62885;51.374;6.170;2024-03-22T01:22:22;22.63;;;12.20;;
74371;SDS011;62885;51.374;6.170;2024-03-22T01:24:48;28.38;;;13.48;;
74371;SDS011;62885;51.374;6.170;2024-03-22T01:27:14;27.55;;;12.90;;
74371;SDS011;62885;51.374;6.170;2024-03-22T01:29:39;22.35;;;11.48;;
74371;SDS011;62885;51.374;6.170;2024-03-22T01:32:05;25.60;;;12.65;;
74371;SDS011;62885;51.374;6.170;2024-03-22T01:34:30;27.95;;;13.05;;
74371;SDS011;62885;51.374;6.170;2024-03-22T01:36:55;26.73;;;13.90;;
74371;SDS011;62885;51.374;6.170;2024-03-22T01:39:21;25.20;;;12.95;;
74371;SDS011;62885;51.374;6.170;2024-03-22T01:41:55;26.30;;;13.13;;
74371;SDS011;62885;51.374;6.170;2024-03-22T01:44:26;25.20;;;11.80;;
74371;SDS011;62885;51.374;6.170;2024-03-22T01:46:52;24.42;;;12.82;;
74371;SDS011;62885;51.374;6.170;2024-03-22T01:49:18;28.25;;;12.35;;
74371;SDS011;62885;51.374;6.170;2024-03-22T01:51:44;29.70;;;13.13;;
74371;SDS011;62885;51.374;6.170;2024-03-22T01:54:09;25.35;;;11.75;;
74371;SDS011;62885;51.374;6.170;2024-03-22T01:56:38;30.48;;;14.82;;
74371;SDS011;62885;51.374;6.170;2024-03-22T01:59:04;28.35;;;13.48;;
74371;SDS011;62885;51.374;6.170;2024-03-22T02:01:31;27.55;;;14.07;;
74371;SDS011;62885;51.374;6.170;2024-03-22T02:03:57;26.42;;;12.60;;
74371;SDS011;62885;51.374;6.170;2024-03-22T02:06:22;27.85;;;12.48;;
74371;SDS011;62885;51.374;6.170;2024-03-22T02:08:48;25.70;;;13.52;;
74371;SDS011;62885;51.374;6.170;2024-03-22T02:11:13;27.50;;;13.20;;
74371;SDS011;62885;51.374;6.170;2024-03-22T02:13:39;24.13;;;13.13;;
74371;SDS011;62885;51.374;6.170;2024-03-22T02:16:04;30.60;;;14.40;;
74371;SDS011;62885;51.374;6.170;2024-03-22T02:18:30;28.42;;;14.05;;
74371;SDS011;62885;51.374;6.170;2024-03-22T02:20:58;27.23;;;13.07;;
74371;SDS011;62885;51.374;6.170;2024-03-22T02:23:33;28.70;;;14.52;;
74371;SDS011;62885;51.374;6.170;2024-03-22T02:26:02;26.85;;;14.68;;
74371;SDS011;62885;51.374;6.170;2024-03-22T02:28:28;28.15;;;13.52;;
74371;SDS011;62885;51.374;6.170;2024-03-22T02:30:55;30.35;;;13.93;;
74371;SDS011;62885;51.374;6.170;2024-03-22T02:33:20;29.13;;;14.52;;
74371;SDS011;62885;51.374;6.170;2024-03-22T02:35:46;30.02;;;15.10;;
74371;SDS011;62885;51.374;6.170;2024-03-22T02:38:12;31.80;;;14.55;;
74371;SDS011;62885;51.374;6.170;2024-03-22T02:40:38;28.80;;;14.65;;
74371;SDS011;62885;51.374;6.170;2024-03-22T02:43:03;24.55;;;13.52;;
74371;SDS011;62885;51.374;6.170;2024-03-22T02:45:29;24.92;;;13.18;;
74371;SDS011;62885;51.374;6.170;2024-03-22T02:47:55;28.70;;;13.98;;
74371;SDS011;62885;51.374;6.170;2024-03-22T02:50:21;29.50;;;14.63;;
74371;SDS011;62885;51.374;6.170;2024-03-22T02:52:47;27.27;;;13.73;;
74371;SDS011;62885;51.374;6.170;2024-03-22T02:55:13;28.23;;;13.55;;
74371;SDS011;62885;51.374;6.170;2024-03-22T02:57:38;27.73;;;13.35;;
74371;SDS011;62885;51.374;6.170;2024-03-22T03:00:06;28.17;;;13.07;;
74371;SDS011;62885;51.374;6.170;2024-03-22T03:02:32;26.08;;;14.07;;
74371;SDS011;62885;51.374;6.170;2024-03-22T03:04:57;26.58;;;14.07;;
74371;SDS011;62885;51.374;6.170;2024-03-22T03:07:26;29.90;;;14.85;;
74371;SDS011;62885;51.374;6.170;2024-03-22T03:09:52;28.38;;;14.60;;
74371;SDS011;62885;51.374;6.170;2024-03-22T03:12:18;30.17;;;14.30;;
74371;SDS011;62885;51.374;6.170;2024-03-22T03:14:43;23.65;;;13.18;;
74371;SDS011;62885;51.374;6.170;2024-03-22T03:17:09;26.75;;;13.63;;
74371;SDS011;62885;51.374;6.170;2024-03-22T03:19:34;29.27;;;13.40;;
74371;SDS011;62885;51.374;6.170;2024-03-22T03:21:59;27.13;;;13.85;;
74371;SDS011;62885;51.374;6.170;2024-03-22T03:24:25;23.92;;;12.90;;
74371;SDS011;62885;51.374;6.170;2024-03-22T03:26:50;27.05;;;13.07;;
74371;SDS011;62885;51.374;6.170;2024-03-22T03:29:15;26.60;;;12.82;;
74371;SDS011;62885;51.374;6.170;2024-03-22T03:31:41;23.42;;;12.75;;
74371;SDS011;62885;51.374;6.170;2024-03-22T03:34:06;27.23;;;12.98;;
74371;SDS011;62885;51.374;6.170;2024-03-22T03:36:31;24.20;;;12.82;;
74371;SDS011;62885;51.374;6.170;2024-03-22T03:38:57;24.67;;;12.77;;
74371;SDS011;62885;51.374;6.170;2024-03-22T03:41:22;25.30;;;12.82;;
74371;SDS011;62885;51.374;6.170;2024-03-22T03:43:47;25.17;;;13.25;;
74371;SDS011;62885;51.374;6.170;2024-03-22T03:46:13;26.00;;;13.38;;
74371;SDS011;62885;51.374;6.170;2024-03-22T03:48:38;23.50;;;12.95;;
74371;SDS011;62885;51.374;6.170;2024-03-22T03:51:05;25.13;;;12.85;;
74371;SDS011;62885;51.374;6.170;2024-03-22T03:53:30;23.27;;;12.55;;
74371;SDS011;62885;51.374;6.170;2024-03-22T03:55:56;24.75;;;12.07;;
74371;SDS011;62885;51.374;6.170;2024-03-22T03:58:21;26.38;;;12.18;;
74371;SDS011;62885;51.374;6.170;2024-03-22T04:00:46;25.83;;;12.57;;
74371;SDS011;62885;51.374;6.170;2024-03-22T04:03:12;23.55;;;13.25;;
74371;SDS011;62885;51.374;6.170;2024-03-22T04:05:37;23.88;;;12.13;;
74371;SDS011;62885;51.374;6.170;2024-03-22T04:08:03;22.80;;;11.55;;
74371;SDS011;62885;51.374;6.170;2024-03-22T04:10:28;19.73;;;11.50;;
74371;SDS011;62885;51.374;6.170;2024-03-22T04:12:53;26.23;;;12.65;;
74371;SDS011;62885;51.374;6.170;2024-03-22T04:15:19;25.38;;;13.48;;
74371;SDS011;62885;51.374;6.170;2024-03-22T04:17:44;22.88;;;12.23;;
74371;SDS011;62885;51.374;6.170;2024-03-22T04:20:10;28.65;;;12.00;;
74371;SDS011;62885;51.374;6.170;2024-03-22T04:22:36;23.73;;;11.55;;
74371;SDS011;62885;51.374;6.170;2024-03-22T04:25:02;22.38;;;13.23;;
74371;SDS011;62885;51.374;6.170;2024-03-22T04:27:27;22.30;;;11.98;;
74371;SDS011;62885;51.374;6.170;2024-03-22T04:29:53;25.15;;;12.85;;
74371;SDS011;62885;51.374;6.170;2024-03-22T04:32:18;26.05;;;12.52;;
74371;SDS011;62885;51.374;6.170;2024-03-22T04:34:44;22.35;;;11.88;;
74371;SDS011;62885;51.374;6.170;2024-03-22T04:37:10;22.63;;;12.32;;
74371;SDS011;62885;51.374;6.170;2024-03-22T04:39:36;22.63;;;11.90;;
74371;SDS011;62885;51.374;6.170;2024-03-22T04:42:02;27.50;;;13.98;;
74371;SDS011;62885;51.374;6.170;2024-03-22T04:44:28;24.83;;;12.30;;
74371;SDS011;62885;51.374;6.170;2024-03-22T04:46:54;24.27;;;12.52;;
74371;SDS011;62885;51.374;6.170;2024-03-22T04:49:19;26.10;;;12.82;;
74371;SDS011;62885;51.374;6.170;2024-03-22T04:51:45;23.73;;;11.32;;
74371;SDS011;62885;51.374;6.170;2024-03-22T04:54:10;25.02;;;13.45;;
74371;SDS011;62885;51.374;6.170;2024-03-22T04:56:36;26.67;;;13.95;;
74371;SDS011;62885;51.374;6.170;2024-03-22T04:59:01;22.08;;;12.18;;
74371;SDS011;62885;51.374;6.170;2024-03-22T05:01:26;22.13;;;12.20;;
74371;SDS011;62885;51.374;6.170;2024-03-22T05:03:52;24.20;;;12.68;;
74371;SDS011;62885;51.374;6.170;2024-03-22T05:06:17;27.48;;;12.90;;
74371;SDS011;62885;51.374;6.170;2024-03-22T05:08:43;23.50;;;12.43;;
74371;SDS011;62885;51.374;6.170;2024-03-22T05:11:08;22.75;;;12.32;;
74371;SDS011;62885;51.374;6.170;2024-03-22T05:13:34;22.33;;;12.20;;
74371;SDS011;62885;51.374;6.170;2024-03-22T05:15:59;22.48;;;12.48;;
74371;SDS011;62885;51.374;6.170;2024-03-22T05:18:25;21.35;;;12.40;;
74371;SDS011;62885;51.374;6.170;2024-03-22T05:20:50;23.55;;;12.82;;
74371;SDS011;62885;51.374;6.170;2024-03-22T05:23:15;26.75;;;12.32;;
74371;SDS011;62885;51.374;6.170;2024-03-22T05:25:42;25.45;;;13.20;;
74371;SDS011;62885;51.374;6.170;2024-03-22T05:28:07;21.48;;;12.05;;
74371;SDS011;62885;51.374;6.170;2024-03-22T05:30:33;27.65;;;12.63;;
74371;SDS011;62885;51.374;6.170;2024-03-22T05:32:58;26.27;;;12.50;;
74371;SDS011;62885;51.374;6.170;2024-03-22T05:35:24;23.42;;;12.25;;
74371;SDS011;62885;51.374;6.170;2024-03-22T05:37:49;21.45;;;12.48;;
74371;SDS011;62885;51.374;6.170;2024-03-22T05:40:15;23.33;;;11.85;;
74371;SDS011;62885;51.374;6.170;2024-03-22T05:42:41;23.63;;;11.27;;
74371;SDS011;62885;51.374;6.170;2024-03-22T05:45:06;25.80;;;13.32;;
74371;SDS011;62885;51.374;6.170;2024-03-22T05:47:32;22.08;;;11.50;;
74371;SDS011;62885;51.374;6.170;2024-03-22T05:49:58;22.10;;;11.15;;
74371;SDS011;62885;51.374;6.170;2024-03-22T05:52:27;24.70;;;11.95;;
74371;SDS011;62885;51.374;6.170;2024-03-22T05:54:52;19.17;;;11.07;;
74371;SDS011;62885;51.374;6.170;2024-03-22T05:57:18;21.90;;;11.93;;
74371;SDS011;62885;51.374;6.170;2024-03-22T05:59:43;18.35;;;10.60;;
74371;SDS011;62885;51.374;6.170;2024-03-22T06:02:08;22.08;;;11.18;;
74371;SDS011;62885;51.374;6.170;2024-03-22T06:04:34;19.40;;;10.27;;
74371;SDS011;62885;51.374;6.170;2024-03-22T06:06:59;22.70;;;11.90;;
74371;SDS011;62885;51.374;6.170;2024-03-22T06:09:28;20.50;;;10.82;;
74371;SDS011;62885;51.374;6.170;2024-03-22T06:12:02;20.55;;;11.88;;
74371;SDS011;62885;51.374;6.170;2024-03-22T06:14:31;22.25;;;11.27;;
74371;SDS011;62885;51.374;6.170;2024-03-22T06:16:57;20.77;;;11.43;;
74371;SDS011;62885;51.374;6.170;2024-03-22T06:19:23;23.63;;;12.70;;
74371;SDS011;62885;51.374;6.170;2024-03-22T06:21:48;25.33;;;13.05;;
74371;SDS011;62885;51.374;6.170;2024-03-22T06:24:14;23.17;;;10.73;;
74371;SDS011;62885;51.374;6.170;2024-03-22T06:26:39;18.92;;;10.73;;
74371;SDS011;62885;51.374;6.170;2024-03-22T06:29:05;19.05;;;10.95;;
74371;SDS011;62885;51.374;6.170;2024-03-22T06:31:31;19.40;;;9.77;;
74371;SDS011;62885;51.374;6.170;2024-03-22T06:33:56;20.58;;;10.10;;
74371;SDS011;62885;51.374;6.170;2024-03-22T06:36:27;23.63;;;11.27;;
74371;SDS011;62885;51.374;6.170;2024-03-22T06:38:56;18.13;;;9.40;;
74371;SDS011;62885;51.374;6.170;2024-03-22T06:41:22;17.85;;;9.70;;
74371;SDS011;62885;51.374;6.170;2024-03-22T06:43:47;21.90;;;10.70;;
74371;SDS011;62885;51.374;6.170;2024-03-22T06:46:12;19.73;;;10.20;;
74371;SDS011;62885;51.374;6.170;2024-03-22T06:48:38;21.35;;;10.63;;
74371;SDS011;62885;51.374;6.170;2024-03-22T06:51:03;19.17;;;10.57;;
74371;SDS011;62885;51.374;6.170;2024-03-22T06:53:28;18.25;;;9.38;;
74371;SDS011;62885;51.374;6.170;2024-03-22T06:55:54;20.88;;;10.02;;
74371;SDS011;62885;51.374;6.170;2024-03-22T06:58:19;21.23;;;10.18;;
74371;SDS011;62885;51.374;6.170;2024-03-22T07:00:44;20.48;;;10.10;;
74371;SDS011;62885;51.374;6.170;2024-03-22T07:03:10;23.88;;;10.70;;
74371;SDS011;62885;51.374;6.170;2024-03-22T07:05:35;18.83;;;10.57;;
74371;SDS011;62885;51.374;6.170;2024-03-22T07:08:00;18.50;;;9.63;;
74371;SDS011;62885;51.374;6.170;2024-03-22T07:10:26;21.15;;;9.90;;
74371;SDS011;62885;51.374;6.170;2024-03-22T07:12:53;18.10;;;9.52;;
74371;SDS011;62885;51.374;6.170;2024-03-22T07:15:25;21.33;;;10.20;;
74371;SDS011;62885;51.374;6.170;2024-03-22T07:17:50;20.33;;;10.63;;
74371;SDS011;62885;51.374;6.170;2024-03-22T07:20:16;16.98;;;9.70;;
74371;SDS011;62885;51.374;6.170;2024-03-22T07:22:42;19.58;;;10.50;;
74371;SDS011;62885;51.374;6.170;2024-03-22T07:25:07;16.90;;;8.93;;
74371;SDS011;62885;51.374;6.170;2024-03-22T07:27:35;17.42;;;9.40;;
74371;SDS011;62885;51.374;6.170;2024-03-22T07:30:01;17.80;;;8.88;;
74371;SDS011;62885;51.374;6.170;2024-03-22T07:32:26;18.52;;;9.48;;
74371;SDS011;62885;51.374;6.170;2024-03-22T07:34:51;16.13;;;9.20;;
74371;SDS011;62885;51.374;6.170;2024-03-22T07:37:17;20.63;;;9.75;;
74371;SDS011;62885;51.374;6.170;2024-03-22T07:39:42;15.48;;;8.65;;
74371;SDS011;62885;51.374;6.170;2024-03-22T07:42:07;18.52;;;9.65;;
74371;SDS011;62885;51.374;6.170;2024-03-22T07:44:33;15.30;;;7.68;;
74371;SDS011;62885;51.374;6.170;2024-03-22T07:46:58;16.58;;;8.77;;
74371;SDS011;62885;51.374;6.170;2024-03-22T07:49:23;20.88;;;10.02;;
74371;SDS011;62885;51.374;6.170;2024-03-22T07:51:49;17.48;;;9.95;;
74371;SDS011;62885;51.374;6.170;2024-03-22T07:54:14;16.42;;;8.63;;
74371;SDS011;62885;51.374;6.170;2024-03-22T07:56:40;16.45;;;8.13;;
74371;SDS011;62885;51.374;6.170;2024-03-22T07:59:07;14.23;;;7.88;;
74371;SDS011;62885;51.374;6.170;2024-03-22T08:01:33;15.93;;;8.70;;
74371;SDS011;62885;51.374;6.170;2024-03-22T08:03:58;16.17;;;8.95;;
74371;SDS011;62885;51.374;6.170;2024-03-22T08:06:24;13.85;;;7.90;;
74371;SDS011;62885;51.374;6.170;2024-03-22T08:08:49;17.08;;;7.88;;
74371;SDS011;62885;51.374;6.170;2024-03-22T08:11:14;15.82;;;7.68;;
74371;SDS011;62885;51.374;6.170;2024-03-22T08:13:40;14.35;;;7.40;;
74371;SDS011;62885;51.374;6.170;2024-03-22T08:16:05;16.05;;;8.30;;
74371;SDS011;62885;51.374;6.170;2024-03-22T08:18:31;17.08;;;8.55;;
74371;SDS011;62885;51.374;6.170;2024-03-22T08:20:57;15.63;;;7.45;;
74371;SDS011;62885;51.374;6.170;2024-03-22T08:23:24;13.23;;;6.93;;
74371;SDS011;62885;51.374;6.170;2024-03-22T08:25:49;13.27;;;6.63;;
74371;SDS011;62885;51.374;6.170;2024-03-22T08:28:14;16.95;;;7.35;;
74371;SDS011;62885;51.374;6.170;2024-03-22T08:30:40;16.30;;;7.38;;
74371;SDS011;62885;51.374;6.170;2024-03-22T08:33:07;15.70;;;8.05;;
74371;SDS011;62885;51.374;6.170;2024-03-22T08:35:32;15.50;;;6.97;;
74371;SDS011;62885;51.374;6.170;2024-03-22T08:37:57;12.02;;;6.53;;
74371;SDS011;62885;51.374;6.170;2024-03-22T08:40:23;15.48;;;7.70;;
74371;SDS011;62885;51.374;6.170;2024-03-22T08:42:49;13.43;;;6.72;;
74371;SDS011;62885;51.374;6.170;2024-03-22T08:45:14;16.85;;;8.73;;
74371;SDS011;62885;51.374;6.170;2024-03-22T08:47:41;14.43;;;7.35;;
74371;SDS011;62885;51.374;6.170;2024-03-22T08:50:07;16.35;;;8.48;;
74371;SDS011;62885;51.374;6.170;2024-03-22T08:52:32;16.35;;;7.97;;
74371;SDS011;62885;51.374;6.170;2024-03-22T08:55:00;15.95;;;6.90;;
74371;SDS011;62885;51.374;6.170;2024-03-22T08:57:25;12.52;;;6.63;;
74371;SDS011;62885;51.374;6.170;2024-03-22T08:59:51;12.60;;;6.80;;
74371;SDS011;62885;51.374;6.170;2024-03-22T09:02:16;11.07;;;5.88;;
74371;SDS011;62885;51.374;6.170;2024-03-22T09:04:41;12.25;;;6.00;;
74371;SDS011;62885;51.374;6.170;2024-03-22T09:07:07;13.43;;;6.70;;
74371;SDS011;62885;51.374;6.170;2024-03-22T09:09:32;12.63;;;6.15;;
74371;SDS011;62885;51.374;6.170;2024-03-22T09:11:58;12.27;;;5.95;;
74371;SDS011;62885;51.374;6.170;2024-03-22T09:14:23;14.07;;;7.13;;
74371;SDS011;62885;51.374;6.170;2024-03-22T09:16:48;14.40;;;7.40;;
74371;SDS011;62885;51.374;6.170;2024-03-22T09:19:14;13.73;;;5.97;;
74371;SDS011;62885;51.374;6.170;2024-03-22T09:21:39;12.45;;;6.22;;
74371;SDS011;62885;51.374;6.170;2024-03-22T09:24:04;12.38;;;7.03;;
74371;SDS011;62885;51.374;6.170;2024-03-22T09:26:31;14.50;;;6.88;;
74371;SDS011;62885;51.374;6.170;2024-03-22T09:28:58;14.02;;;6.78;;
74371;SDS011;62885;51.374;6.170;2024-03-22T09:31:23;12.35;;;6.65;;
74371;SDS011;62885;51.374;6.170;2024-03-22T09:33:49;12.18;;;6.47;;
74371;SDS011;62885;51.374;6.170;2024-03-22T09:36:14;15.43;;;7.32;;
74371;SDS011;62885;51.374;6.170;2024-03-22T09:38:39;12.05;;;6.05;;
74371;SDS011;62885;51.374;6.170;2024-03-22T09:41:05;12.68;;;6.45;;
74371;SDS011;62885;51.374;6.170;2024-03-22T09:43:30;11.20;;;6.00;;
74371;SDS011;62885;51.374;6.170;2024-03-22T09:45:57;12.05;;;6.57;;
74371;SDS011;62885;51.374;6.170;2024-03-22T09:48:23;13.88;;;6.55;;
74371;SDS011;62885;51.374;6.170;2024-03-22T09:50:48;10.80;;;5.90;;
74371;SDS011;62885;51.374;6.170;2024-03-22T09:53:18;13.82;;;6.25;;
74371;SDS011;62885;51.374;6.170;2024-03-22T09:55:45;12.50;;;6.60;;
74371;SDS011;62885;51.374;6.170;2024-03-22T09:58:12;11.60;;;6.00;;
74371;SDS011;62885;51.374;6.170;2024-03-22T10:00:38;12.95;;;6.75;;
74371;SDS011;62885;51.374;6.170;2024-03-22T10:03:03;12.55;;;6.95;;
74371;SDS011;62885;51.374;6.170;2024-03-22T10:05:30;12.48;;;6.60;;
74371;SDS011;62885;51.374;6.170;2024-03-22T10:07:57;18.17;;;6.35;;
74371;SDS011;62885;51.374;6.170;2024-03-22T10:10:23;12.88;;;6.57;;
74371;SDS011;62885;51.374;6.170;2024-03-22T10:12:48;13.30;;;6.80;;
74371;SDS011;62885;51.374;6.170;2024-03-22T10:15:13;11.23;;;6.93;;
74371;SDS011;62885;51.374;6.170;2024-03-22T10:17:39;13.70;;;6.38;;
74371;SDS011;62885;51.374;6.170;2024-03-22T10:20:05;14.32;;;7.30;;
74371;SDS011;62885;51.374;6.170;2024-03-22T10:25:33;14.02;;;6.70;;
74371;SDS011;62885;51.374;6.170;2024-03-22T10:27:59;11.70;;;5.97;;
74371;SDS011;62885;51.374;6.170;2024-03-22T10:30:24;12.32;;;5.38;;
74371;SDS011;62885;51.374;6.170;2024-03-22T10:32:50;10.52;;;6.03;;
74371;SDS011;62885;51.374;6.170;2024-03-22T10:35:16;15.25;;;6.35;;
74371;SDS011;62885;51.374;6.170;2024-03-22T10:37:42;11.82;;;5.97;;
74371;SDS011;62885;51.374;6.170;2024-03-22T10:40:11;12.13;;;6.20;;
74371;SDS011;62885;51.374;6.170;2024-03-22T10:42:37;9.63;;;5.75;;
74371;SDS011;62885;51.374;6.170;2024-03-22T10:45:07;11.43;;;5.25;;
74371;SDS011;62885;51.374;6.170;2024-03-22T10:47:34;10.20;;;5.55;;
74371;SDS011;62885;51.374;6.170;2024-03-22T10:52:34;10.98;;;5.25;;
74371;SDS011;62885;51.374;6.170;2024-03-22T10:55:01;9.80;;;4.82;;
74371;SDS011;62885;51.374;6.170;2024-03-22T10:57:29;10.60;;;5.07;;
74371;SDS011;62885;51.374;6.170;2024-03-22T10:59:56;11.52;;;6.18;;
74371;SDS011;62885;51.374;6.170;2024-03-22T11:02:23;12.15;;;5.78;;
74371;SDS011;62885;51.374;6.170;2024-03-22T11:04:56;12.07;;;6.07;;
74371;SDS011;62885;51.374;6.170;2024-03-22T11:07:22;12.25;;;5.75;;
74371;SDS011;62885;51.374;6.170;2024-03-22T11:09:55;10.68;;;4.97;;
74371;SDS011;62885;51.374;6.170;2024-03-22T11:12:21;10.85;;;5.30;;
74371;SDS011;62885;51.374;6.170;2024-03-22T11:14:48;10.65;;;5.45;;
74371;SDS011;62885;51.374;6.170;2024-03-22T11:17:14;10.10;;;5.40;;
74371;SDS011;62885;51.374;6.170;2024-03-22T11:19:40;12.02;;;5.70;;
74371;SDS011;62885;51.374;6.170;2024-03-22T11:22:07;10.75;;;5.75;;
74371;SDS011;62885;51.374;6.170;2024-03-22T11:24:33;11.73;;;6.60;;
74371;SDS011;62885;51.374;6.170;2024-03-22T11:26:58;11.68;;;5.50;;
74371;SDS011;62885;51.374;6.170;2024-03-22T11:29:24;10.75;;;5.18;;
74371;SDS011;62885;51.374;6.170;2024-03-22T11:31:50;12.52;;;6.13;;
74371;SDS011;62885;51.374;6.170;2024-03-22T11:34:15;9.05;;;5.13;;
74371;SDS011;62885;51.374;6.170;2024-03-22T11:36:40;11.27;;;4.93;;
74371;SDS011;62885;51.374;6.170;2024-03-22T11:39:06;9.90;;;5.93;;
74371;SDS011;62885;51.374;6.170;2024-03-22T11:41:32;12.10;;;5.82;;
74371;SDS011;62885;51.374;6.170;2024-03-22T11:43:59;9.57;;;4.72;;
74371;SDS011;62885;51.374;6.170;2024-03-22T11:46:25;8.82;;;4.78;;
74371;SDS011;62885;51.374;6.170;2024-03-22T11:48:52;10.65;;;5.50;;
74371;SDS011;62885;51.374;6.170;2024-03-22T11:51:18;12.80;;;6.63;;
74371;SDS011;62885;51.374;6.170;2024-03-22T11:53:50;11.55;;;5.90;;
74371;SDS011;62885;51.374;6.170;2024-03-22T11:56:19;10.93;;;5.60;;
74371;SDS011;62885;51.374;6.170;2024-03-22T11:58:48;12.75;;;5.70;;
74371;SDS011;62885;51.374;6.170;2024-03-22T12:01:15;9.98;;;5.43;;
74371;SDS011;62885;51.374;6.170;2024-03-22T12:03:43;11.82;;;5.97;;
74371;SDS011;62885;51.374;6.170;2024-03-22T12:06:08;12.65;;;5.95;;
74371;SDS011;62885;51.374;6.170;2024-03-22T12:08:34;10.68;;;5.10;;
74371;SDS011;62885;51.374;6.170;2024-03-22T12:11:02;10.25;;;5.70;;
74371;SDS011;62885;51.374;6.170;2024-03-22T12:13:28;13.52;;;6.20;;
74371;SDS011;62885;51.374;6.170;2024-03-22T12:15:54;11.00;;;5.45;;
74371;SDS011;62885;51.374;6.170;2024-03-22T12:18:19;11.82;;;6.43;;
74371;SDS011;62885;51.374;6.170;2024-03-22T12:20:44;11.93;;;7.00;;
74371;SDS011;62885;51.374;6.170;2024-03-22T12:23:10;16.20;;;8.50;;
74371;SDS011;62885;51.374;6.170;2024-03-22T12:25:35;11.93;;;7.00;;
74371;SDS011;62885;51.374;6.170;2024-03-22T12:28:00;13.07;;;6.30;;
74371;SDS011;62885;51.374;6.170;2024-03-22T12:30:26;11.05;;;6.30;;
74371;SDS011;62885;51.374;6.170;2024-03-22T12:32:51;11.60;;;5.70;;
74371;SDS011;62885;51.374;6.170;2024-03-22T12:35:16;12.27;;;6.88;;
74371;SDS011;62885;51.374;6.170;2024-03-22T12:37:42;10.63;;;5.68;;
74371;SDS011;62885;51.374;6.170;2024-03-22T12:40:07;12.25;;;5.45;;
74371;SDS011;62885;51.374;6.170;2024-03-22T12:42:33;12.75;;;6.35;;
74371;SDS011;62885;51.374;6.170;2024-03-22T12:44:59;11.10;;;6.55;;
74371;SDS011;62885;51.374;6.170;2024-03-22T12:47:24;11.27;;;6.35;;
74371;SDS011;62885;51.374;6.170;2024-03-22T12:49:52;9.73;;;5.82;;
74371;SDS011;62885;51.374;6.170;2024-03-22T12:52:17;11.77;;;6.32;;
74371;SDS011;62885;51.374;6.170;2024-03-22T12:54:42;13.80;;;6.60;;
74371;SDS011;62885;51.374;6.170;2024-03-22T12:57:08;13.73;;;6.40;;
74371;SDS011;62885;51.374;6.170;2024-03-22T12:59:35;13.43;;;7.88;;
74371;SDS011;62885;51.374;6.170;2024-03-22T13:02:00;14.00;;;6.88;;
74371;SDS011;62885;51.374;6.170;2024-03-22T13:04:26;15.43;;;6.28;;
74371;SDS011;62885;51.374;6.170;2024-03-22T13:06:52;12.00;;;6.80;;
74371;SDS011;62885;51.374;6.170;2024-03-22T13:09:17;13.63;;;6.90;;
74371;SDS011;62885;51.374;6.170;2024-03-22T13:11:46;13.20;;;7.03;;
74371;SDS011;62885;51.374;6.170;2024-03-22T13:14:12;14.25;;;8.02;;
74371;SDS011;62885;51.374;6.170;2024-03-22T13:16:38;11.25;;;6.25;;
74371;SDS011;62885;51.374;6.170;2024-03-22T13:19:03;14.85;;;7.13;;
74371;SDS011;62885;51.374;6.170;2024-03-22T13:21:30;13.48;;;7.25;;
74371;SDS011;62885;51.374;6.170;2024-03-22T13:23:56;14.38;;;7.05;;
74371;SDS011;62885;51.374;6.170;2024-03-22T13:26:21;13.85;;;6.95;;
74371;SDS011;62885;51.374;6.170;2024-03-22T13:28:47;15.60;;;6.53;;
74371;SDS011;62885;51.374;6.170;2024-03-22T13:31:12;12.40;;;6.22;;
74371;SDS011;62885;51.374;6.170;2024-03-22T13:33:38;17.20;;;7.43;;
74371;SDS011;62885;51.374;6.170;2024-03-22T13:36:04;14.07;;;6.80;;
74371;SDS011;62885;51.374;6.170;2024-03-22T13:38:30;14.15;;;7.25;;
74371;SDS011;62885;51.374;6.170;2024-03-22T13:40:56;12.18;;;7.03;;
74371;SDS011;62885;51.374;6.170;2024-03-22T13:43:22;14.38;;;7.25;;
74371;SDS011;62885;51.374;6.170;2024-03-22T13:45:52;11.60;;;7.32;;
74371;SDS011;62885;51.374;6.170;2024-03-22T13:48:22;12.90;;;6.22;;
74371;SDS011;62885;51.374;6.170;2024-03-22T13:50:52;11.93;;;7.35;;
74371;SDS011;62885;51.374;6.170;2024-03-22T13:53:21;15.02;;;7.55;;
74371;SDS011;62885;51.374;6.170;2024-03-22T13:55:48;14.77;;;7.35;;
74371;SDS011;62885;51.374;6.170;2024-03-22T13:58:15;12.75;;;6.45;;
74371;SDS011;62885;51.374;6.170;2024-03-22T14:00:41;13.27;;;7.07;;
74371;SDS011;62885;51.374;6.170;2024-03-22T14:03:07;13.45;;;7.03;;
74371;SDS011;62885;51.374;6.170;2024-03-22T14:05:32;13.10;;;6.60;;
74371;SDS011;62885;51.374;6.170;2024-03-22T14:07:58;17.27;;;10.02;;
74371;SDS011;62885;51.374;6.170;2024-03-22T14:10:24;12.50;;;6.50;;
74371;SDS011;62885;51.374;6.170;2024-03-22T14:12:52;13.18;;;6.68;;
74371;SDS011;62885;51.374;6.170;2024-03-22T14:15:18;12.15;;;7.13;;
74371;SDS011;62885;51.374;6.170;2024-03-22T14:17:43;13.00;;;6.65;;
74371;SDS011;62885;51.374;6.170;2024-03-22T14:20:09;16.35;;;7.15;;
74371;SDS011;62885;51.374;6.170;2024-03-22T14:22:40;13.18;;;6.80;;
74371;SDS011;62885;51.374;6.170;2024-03-22T14:25:09;12.88;;;7.65;;
74371;SDS011;62885;51.374;6.170;2024-03-22T14:27:35;13.73;;;6.97;;